sensor_id;sensor_type;location;lat;lon;timestamp;pressure;altitude;pressure_sealevel;temperature;humidity
30463;BME280;17256;43.618;25.336;2023-05-02T00:01:03;100879.66;;;13.60;57.00
30463;BME280;17256;43.618;25.336;2023-05-02T00:03:30;100851.84;;;13.48;57.17
30463;BME280;17256;43.618;25.336;2023-05-02T00:05:59;100718.13;;;12.51;57.16
30463;BME280;17256;43.618;25.336;2023-05-02T00:08:31;100935.28;;;13.70;57.80
30463;BME280;17256;43.618;25.336;2023-05-02T00:10:57;100729.50;;;12.28;57.54
30463;BME280;17256;43.618;25.336;2023-05-02T00:13:23;100983.69;;;14.12;57.07
30463;BME280;17256;43.618;25.336;2023-05-02T00:15:49;100889.59;;;13.21;57.23
30463;BME280;17256;43.618;25.336;2023-05-02T00:18:14;100952.91;;;13.69;57.34
30463;BME280;17256;43.618;25.336;2023-05-02T00:20:40;100875.81;;;13.28;57.71
30463;BME280;17256;43.618;25.336;2023-05-02T00:23:07;100914.88;;;13.44;57.02
30463;BME280;17256;43.618;25.336;2023-05-02T00:25:33;100789.19;;;12.69;57.15
30463;BME280;17256;43.618;25.336;2023-05-02T00:27:59;100698.78;;;12.18;56.89
30463;BME280;17256;43.618;25.336;2023-05-02T00:30:24;100900.84;;;13.26;57.92
30463;BME280;17256;43.618;25.336;2023-05-02T00:32:50;100758.97;;;12.35;57.92
30463;BME280;17256;43.618;25.336;2023-05-02T00:35:18;101059.78;;;14.14;57.54
30463;BME280;17256;43.618;25.336;2023-05-02T00:37:46;100980.50;;;13.69;57.73
30463;BME280;17256;43.618;25.336;2023-05-02T00:40:12;100690.13;;;11.74;57.63
30463;BME280;17256;43.618;25.336;2023-05-02T00:42:38;100852.78;;;12.74;58.30
30463;BME280;17256;43.618;25.336;2023-05-02T00:45:05;100951.13;;;13.28;58.01
30463;BME280;17256;43.618;25.336;2023-05-02T00:47:31;100875.72;;;12.94;57.63
30463;BME280;17256;43.618;25.336;2023-05-02T00:49:59;100772.53;;;12.29;57.65
30463;BME280;17256;43.618;25.336;2023-05-02T00:52:27;100836.59;;;12.58;58.00
30463;BME280;17256;43.618;25.336;2023-05-02T00:54:53;100982.16;;;13.50;58.11
30463;BME280;17256;43.618;25.336;2023-05-02T00:57:19;100992.78;;;13.60;57.72
30463;BME280;17256;43.618;25.336;2023-05-02T00:59:45;101026.38;;;13.83;58.16
30463;BME280;17256;43.618;25.336;2023-05-02T01:08:34;100997.25;;;13.61;58.35
30463;BME280;17256;43.618;25.336;2023-05-02T01:11:13;101168.66;;;14.66;57.59
30463;BME280;17256;43.618;25.336;2023-05-02T01:13:41;100739.03;;;12.19;57.46
30463;BME280;17256;43.618;25.336;2023-05-02T01:16:11;100970.06;;;13.44;57.95
30463;BME280;17256;43.618;25.336;2023-05-02T01:18:40;101037.25;;;13.98;57.97
30463;BME280;17256;43.618;25.336;2023-05-02T01:21:08;100897.84;;;13.14;57.93
30463;BME280;17256;43.618;25.336;2023-05-02T01:24:09;101166.94;;;14.78;58.28
30463;BME280;17256;43.618;25.336;2023-05-02T01:27:10;100788.69;;;12.52;58.19
30463;BME280;17256;43.618;25.336;2023-05-02T01:29:40;100668.16;;;11.80;58.06
30463;BME280;17256;43.618;25.336;2023-05-02T01:32:07;100963.06;;;13.48;58.39
30463;BME280;17256;43.618;25.336;2023-05-02T01:34:36;100859.63;;;13.05;58.09
30463;BME280;17256;43.618;25.336;2023-05-02T01:37:04;100852.78;;;12.87;58.60
30463;BME280;17256;43.618;25.336;2023-05-02T01:39:32;101161.84;;;14.75;58.64
30463;BME280;17256;43.618;25.336;2023-05-02T01:42:01;100884.66;;;13.03;59.04
30463;BME280;17256;43.618;25.336;2023-05-02T01:44:29;100965.19;;;13.53;59.15
30463;BME280;17256;43.618;25.336;2023-05-02T01:46:55;101057.22;;;14.20;59.22
30463;BME280;17256;43.618;25.336;2023-05-02T01:49:24;100858.13;;;12.96;59.54
30463;BME280;17256;43.618;25.336;2023-05-02T01:51:51;100877.84;;;12.99;59.71
30463;BME280;17256;43.618;25.336;2023-05-02T01:54:19;101201.19;;;14.84;59.86
30463;BME280;17256;43.618;25.336;2023-05-02T01:56:46;100893.63;;;13.25;60.14
30463;BME280;17256;43.618;25.336;2023-05-02T01:59:16;100907.22;;;13.20;60.21
30463;BME280;17256;43.618;25.336;2023-05-02T02:01:43;101182.91;;;14.90;60.60
30463;BME280;17256;43.618;25.336;2023-05-02T02:04:11;100929.06;;;13.35;60.47
30463;BME280;17256;43.618;25.336;2023-05-02T02:06:38;100907.44;;;13.18;61.18
30463;BME280;17256;43.618;25.336;2023-05-02T02:09:07;100876.16;;;12.91;61.00
30463;BME280;17256;43.618;25.336;2023-05-02T02:11:42;100765.97;;;12.37;61.08
30463;BME280;17256;43.618;25.336;2023-05-02T02:14:16;100878.28;;;13.09;61.81
30463;BME280;17256;43.618;25.336;2023-05-02T02:16:43;100875.09;;;13.06;61.65
30463;BME280;17256;43.618;25.336;2023-05-02T02:19:10;100964.78;;;13.49;61.20
30463;BME280;17256;43.618;25.336;2023-05-02T02:21:38;100927.31;;;13.14;61.50
30463;BME280;17256;43.618;25.336;2023-05-02T02:24:06;101044.44;;;13.85;62.13
30463;BME280;17256;43.618;25.336;2023-05-02T02:26:32;101010.66;;;13.83;61.98
30463;BME280;17256;43.618;25.336;2023-05-02T02:29:02;100713.31;;;11.99;62.15
30463;BME280;17256;43.618;25.336;2023-05-02T02:31:33;100944.97;;;13.26;62.52
30463;BME280;17256;43.618;25.336;2023-05-02T02:34:01;101189.91;;;14.86;62.25
30463;BME280;17256;43.618;25.336;2023-05-02T02:41:59;100741.94;;;12.05;62.68
30463;BME280;17256;43.618;25.336;2023-05-02T02:44:46;101022.97;;;13.74;63.01
30463;BME280;17256;43.618;25.336;2023-05-02T02:47:31;101182.91;;;14.70;63.37
30463;BME280;17256;43.618;25.336;2023-05-02T02:50:19;101176.53;;;14.69;63.57
30463;BME280;17256;43.618;25.336;2023-05-02T02:56:15;100711.81;;;11.90;63.63
30463;BME280;17256;43.618;25.336;2023-05-02T03:01:30;101018.50;;;13.67;63.93
30463;BME280;17256;43.618;25.336;2023-05-02T03:03:57;100845.50;;;12.60;63.53
30463;BME280;17256;43.618;25.336;2023-05-02T03:06:24;100930.25;;;12.99;63.81
30463;BME280;17256;43.618;25.336;2023-05-02T03:08:51;100820.41;;;12.35;63.71
30463;BME280;17256;43.618;25.336;2023-05-02T03:11:19;100868.88;;;12.64;63.81
30463;BME280;17256;43.618;25.336;2023-05-02T03:13:45;100947.78;;;12.85;63.51
30463;BME280;17256;43.618;25.336;2023-05-02T03:16:34;101191.59;;;14.47;63.64
30463;BME280;17256;43.618;25.336;2023-05-02T03:19:02;100957.75;;;12.86;63.09
30463;BME280;17256;43.618;25.336;2023-05-02T03:21:29;100960.97;;;12.89;62.89
30463;BME280;17256;43.618;25.336;2023-05-02T03:24:00;101021.59;;;13.37;62.89
30463;BME280;17256;43.618;25.336;2023-05-02T03:26:26;101130.91;;;14.06;62.71
30463;BME280;17256;43.618;25.336;2023-05-02T03:28:54;100905.84;;;12.89;61.74
30463;BME280;17256;43.618;25.336;2023-05-02T03:31:26;100852.69;;;12.54;62.03
30463;BME280;17256;43.618;25.336;2023-05-02T03:33:52;101047.19;;;13.72;62.12
30463;BME280;17256;43.618;25.336;2023-05-02T03:36:18;100922.19;;;12.98;61.34
30463;BME280;17256;43.618;25.336;2023-05-02T03:38:44;100912.63;;;12.93;61.18
30463;BME280;17256;43.618;25.336;2023-05-02T03:41:11;100964.50;;;13.38;60.78
30463;BME280;17256;43.618;25.336;2023-05-02T03:43:38;100948.84;;;13.45;59.55
30463;BME280;17256;43.618;25.336;2023-05-02T03:46:06;100928.47;;;13.39;59.66
30463;BME280;17256;43.618;25.336;2023-05-02T03:48:38;100827.81;;;12.89;58.64
30463;BME280;17256;43.618;25.336;2023-05-02T03:51:05;101027.25;;;14.23;57.99
30463;BME280;17256;43.618;25.336;2023-05-02T03:53:40;101017.69;;;14.32;58.07
30463;BME280;17256;43.618;25.336;2023-05-02T03:56:07;100955.88;;;14.13;56.55
30463;BME280;17256;43.618;25.336;2023-05-02T03:58:43;100969.88;;;14.38;56.21
30463;BME280;17256;43.618;25.336;2023-05-02T04:24:25;101250.00;;;17.47;52.71
30463;BME280;17256;43.618;25.336;2023-05-02T04:26:51;100802.69;;;14.99;52.17
30463;BME280;17256;43.618;25.336;2023-05-02T04:29:19;101071.88;;;16.45;51.40
30463;BME280;17256;43.618;25.336;2023-05-02T04:31:55;101249.66;;;17.62;52.04
30463;BME280;17256;43.618;25.336;2023-05-02T04:34:25;101271.84;;;17.87;50.68
30463;BME280;17256;43.618;25.336;2023-05-02T04:37:03;101270.28;;;17.91;51.44
30463;BME280;17256;43.618;25.336;2023-05-02T04:39:30;100876.53;;;15.86;51.03
30463;BME280;17256;43.618;25.336;2023-05-02T04:42:00;101034.47;;;16.98;50.16
30463;BME280;17256;43.618;25.336;2023-05-02T04:44:29;101055.78;;;17.34;51.35
30463;BME280;17256;43.618;25.336;2023-05-02T04:47:05;100986.59;;;17.02;48.96
30463;BME280;17256;43.618;25.336;2023-05-02T04:49:34;101267.16;;;18.84;48.55
30463;BME280;17256;43.618;25.336;2023-05-02T04:52:02;100888.28;;;16.43;48.62
30463;BME280;17256;43.618;25.336;2023-05-02T04:54:33;101198.09;;;18.32;48.80
30463;BME280;17256;43.618;25.336;2023-05-02T04:57:02;100853.38;;;16.36;48.60
30463;BME280;17256;43.618;25.336;2023-05-02T04:59:48;100858.56;;;16.50;48.14
30463;BME280;17256;43.618;25.336;2023-05-02T05:02:14;100903.94;;;16.74;47.78
30463;BME280;17256;43.618;25.336;2023-05-02T05:04:43;100915.75;;;17.30;46.80
30463;BME280;17256;43.618;25.336;2023-05-02T05:07:16;101267.38;;;19.59;46.61
30463;BME280;17256;43.618;25.336;2023-05-02T05:12:59;101121.81;;;19.17;45.46
30463;BME280;17256;43.618;25.336;2023-05-02T05:15:31;101027.88;;;18.30;45.97
30463;BME280;17256;43.618;25.336;2023-05-02T05:18:07;101076.03;;;18.54;46.56
30463;BME280;17256;43.618;25.336;2023-05-02T05:20:40;100987.88;;;18.20;46.32
30463;BME280;17256;43.618;25.336;2023-05-02T05:23:12;100961.88;;;18.26;46.04
30463;BME280;17256;43.618;25.336;2023-05-02T05:25:56;100886.44;;;17.75;46.15
30463;BME280;17256;43.618;25.336;2023-05-02T05:28:39;101275.59;;;20.29;45.57
30463;BME280;17256;43.618;25.336;2023-05-02T05:36:51;101200.13;;;20.07;46.07
30463;BME280;17256;43.618;25.336;2023-05-02T05:42:27;101093.97;;;19.17;45.24
30463;BME280;17256;43.618;25.336;2023-05-02T05:45:00;101015.34;;;18.86;45.90
30463;BME280;17256;43.618;25.336;2023-05-02T05:47:28;101001.47;;;18.63;48.03
30463;BME280;17256;43.618;25.336;2023-05-02T05:49:55;101134.81;;;19.51;52.62
30463;BME280;17256;43.618;25.336;2023-05-02T05:52:26;101012.16;;;18.24;54.12
30463;BME280;17256;43.618;25.336;2023-05-02T05:55:02;100876.69;;;17.85;53.91
30463;BME280;17256;43.618;25.336;2023-05-02T05:57:34;101059.59;;;18.99;54.78
30463;BME280;17256;43.618;25.336;2023-05-02T06:00:01;101081.19;;;19.44;51.44
30463;BME280;17256;43.618;25.336;2023-05-02T06:02:52;101114.75;;;19.61;54.85
30463;BME280;17256;43.618;25.336;2023-05-02T06:05:52;101052.91;;;19.35;53.24
30463;BME280;17256;43.618;25.336;2023-05-02T06:08:22;100919.09;;;18.38;54.53
30463;BME280;17256;43.618;25.336;2023-05-02T06:10:48;101197.22;;;20.14;54.52
30463;BME280;17256;43.618;25.336;2023-05-02T06:13:16;101180.94;;;20.51;53.88
30463;BME280;17256;43.618;25.336;2023-05-02T06:19:52;101054.44;;;19.43;55.57
30463;BME280;17256;43.618;25.336;2023-05-02T06:22:18;101204.56;;;20.60;55.25
30463;BME280;17256;43.618;25.336;2023-05-02T06:24:48;100949.81;;;18.67;56.07
30463;BME280;17256;43.618;25.336;2023-05-02T06:34:49;101166.94;;;19.42;55.09
30463;BME280;17256;43.618;25.336;2023-05-02T06:37:17;101170.44;;;19.73;55.04
30463;BME280;17256;43.618;25.336;2023-05-02T06:39:48;100985.31;;;19.28;53.06
30463;BME280;17256;43.618;25.336;2023-05-02T06:42:15;101097.75;;;20.19;48.19
30463;BME280;17256;43.618;25.336;2023-05-02T06:44:43;101114.50;;;20.19;48.40
30463;BME280;17256;43.618;25.336;2023-05-02T06:47:13;101116.75;;;20.51;46.80
30463;BME280;17256;43.618;25.336;2023-05-02T06:49:49;100892.84;;;19.26;47.00
30463;BME280;17256;43.618;25.336;2023-05-02T06:52:18;101219.91;;;21.41;48.04
30463;BME280;17256;43.618;25.336;2023-05-02T06:54:45;101156.06;;;21.16;46.36
30463;BME280;17256;43.618;25.336;2023-05-02T06:57:14;101221.47;;;21.93;45.72
30463;BME280;17256;43.618;25.336;2023-05-02T06:59:41;101141.53;;;21.75;45.56
30463;BME280;17256;43.618;25.336;2023-05-02T07:02:12;101169.69;;;21.68;44.41
30463;BME280;17256;43.618;25.336;2023-05-02T07:04:39;100912.69;;;20.25;44.71
30463;BME280;17256;43.618;25.336;2023-05-02T07:07:08;100937.84;;;20.64;43.80
30463;BME280;17256;43.618;25.336;2023-05-02T07:09:35;100877.97;;;20.16;43.50
30463;BME280;17256;43.618;25.336;2023-05-02T07:12:02;101166.31;;;21.88;42.72
30463;BME280;17256;43.618;25.336;2023-05-02T07:14:28;101151.94;;;21.79;43.25
30463;BME280;17256;43.618;25.336;2023-05-02T07:16:55;100980.94;;;20.73;42.99
30463;BME280;17256;43.618;25.336;2023-05-02T07:19:23;101081.09;;;21.47;42.58
30463;BME280;17256;43.618;25.336;2023-05-02T07:21:55;101299.22;;;23.05;43.10
30463;BME280;17256;43.618;25.336;2023-05-02T07:24:26;101163.50;;;22.59;43.25
30463;BME280;17256;43.618;25.336;2023-05-02T07:26:55;101139.75;;;22.66;42.01
30463;BME280;17256;43.618;25.336;2023-05-02T07:30:10;101070.84;;;22.60;41.03
30463;BME280;17256;43.618;25.336;2023-05-02T07:39:16;101300.38;;;23.09;40.80
30463;BME280;17256;43.618;25.336;2023-05-02T07:41:42;101137.13;;;22.28;40.93
30463;BME280;17256;43.618;25.336;2023-05-02T07:44:08;101121.66;;;22.47;40.59
30463;BME280;17256;43.618;25.336;2023-05-02T07:46:36;101198.59;;;23.03;40.09
30463;BME280;17256;43.618;25.336;2023-05-02T07:49:02;101096.56;;;22.57;39.34
30463;BME280;17256;43.618;25.336;2023-05-02T07:51:27;101067.94;;;22.18;37.73
30463;BME280;17256;43.618;25.336;2023-05-02T07:53:57;101316.03;;;23.05;38.12
30463;BME280;17256;43.618;25.336;2023-05-02T07:56:34;100945.72;;;20.50;38.85
30463;BME280;17256;43.618;25.336;2023-05-02T07:59:06;101108.44;;;22.10;39.03
30463;BME280;17256;43.618;25.336;2023-05-02T08:01:40;101228.28;;;22.72;38.68
30463;BME280;17256;43.618;25.336;2023-05-02T08:04:14;100967.31;;;21.42;38.48
30463;BME280;17256;43.618;25.336;2023-05-02T08:06:48;100890.91;;;20.61;36.21
30463;BME280;17256;43.618;25.336;2023-05-02T08:09:16;101171.25;;;22.52;36.49
30463;BME280;17256;43.618;25.336;2023-05-02T08:11:43;100968.78;;;21.50;36.82
30463;BME280;17256;43.618;25.336;2023-05-02T08:14:09;101080.25;;;22.49;36.27
30463;BME280;17256;43.618;25.336;2023-05-02T08:16:36;100935.38;;;21.60;36.92
30463;BME280;17256;43.618;25.336;2023-05-02T08:19:03;101042.81;;;22.23;37.19
30463;BME280;17256;43.618;25.336;2023-05-02T08:21:29;101014.97;;;22.06;37.24
30463;BME280;17256;43.618;25.336;2023-05-02T08:23:57;101059.28;;;22.84;37.49
30463;BME280;17256;43.618;25.336;2023-05-02T08:26:27;101093.69;;;23.26;33.85
30463;BME280;17256;43.618;25.336;2023-05-02T08:29:03;101302.91;;;24.27;33.58
30463;BME280;17256;43.618;25.336;2023-05-02T08:31:30;101145.78;;;23.17;34.33
30463;BME280;17256;43.618;25.336;2023-05-02T08:33:57;101113.16;;;23.01;33.34
30463;BME280;17256;43.618;25.336;2023-05-02T08:36:24;101062.94;;;22.84;33.16
30463;BME280;17256;43.618;25.336;2023-05-02T08:39:17;101286.13;;;24.32;33.75
30463;BME280;17256;43.618;25.336;2023-05-02T08:41:47;101100.13;;;23.22;33.29
30463;BME280;17256;43.618;25.336;2023-05-02T08:44:15;101129.22;;;23.11;32.66
30463;BME280;17256;43.618;25.336;2023-05-02T08:46:41;101021.03;;;22.30;33.52
30463;BME280;17256;43.618;25.336;2023-05-02T08:49:28;101022.63;;;22.53;33.46
30463;BME280;17256;43.618;25.336;2023-05-02T08:52:11;101138.50;;;23.21;34.03
30463;BME280;17256;43.618;25.336;2023-05-02T08:54:37;101108.22;;;23.18;34.32
30463;BME280;17256;43.618;25.336;2023-05-02T08:57:20;100921.22;;;21.72;33.95
30463;BME280;17256;43.618;25.336;2023-05-02T08:59:51;101051.25;;;22.60;33.18
30463;BME280;17256;43.618;25.336;2023-05-02T09:05:25;101240.41;;;23.84;32.89
30463;BME280;17256;43.618;25.336;2023-05-02T09:07:52;101066.16;;;22.71;32.98
30463;BME280;17256;43.618;25.336;2023-05-02T09:10:18;101217.91;;;23.32;33.86
30463;BME280;17256;43.618;25.336;2023-05-02T09:12:43;101094.47;;;22.80;34.27
30463;BME280;17256;43.618;25.336;2023-05-02T09:15:14;101089.34;;;23.03;34.16
30463;BME280;17256;43.618;25.336;2023-05-02T09:17:42;101166.81;;;23.62;34.48
30463;BME280;17256;43.618;25.336;2023-05-02T09:20:13;101070.72;;;23.24;33.76
30463;BME280;17256;43.618;25.336;2023-05-02T09:22:47;101069.38;;;23.37;33.69
30463;BME280;17256;43.618;25.336;2023-05-02T09:25:14;101097.16;;;23.39;33.30
30463;BME280;17256;43.618;25.336;2023-05-02T09:27:50;101258.94;;;24.38;33.64
30463;BME280;17256;43.618;25.336;2023-05-02T09:30:23;101034.97;;;22.94;33.00
30463;BME280;17256;43.618;25.336;2023-05-02T09:32:50;101262.63;;;24.59;33.34
30463;BME280;17256;43.618;25.336;2023-05-02T09:35:22;101193.44;;;24.27;33.30
30463;BME280;17256;43.618;25.336;2023-05-02T09:37:57;101137.22;;;24.02;33.87
30463;BME280;17256;43.618;25.336;2023-05-02T09:40:59;101246.16;;;25.13;34.57
30463;BME280;17256;43.618;25.336;2023-05-02T09:43:31;101067.13;;;24.22;33.84
30463;BME280;17256;43.618;25.336;2023-05-02T09:46:06;101239.97;;;25.36;32.33
30463;BME280;17256;43.618;25.336;2023-05-02T09:48:54;101131.13;;;24.25;32.12
30463;BME280;17256;43.618;25.336;2023-05-02T09:51:24;101050.25;;;23.91;32.31
30463;BME280;17256;43.618;25.336;2023-05-02T09:53:53;101238.53;;;24.98;32.26
30463;BME280;17256;43.618;25.336;2023-05-02T09:56:55;101122.69;;;24.15;33.13
30463;BME280;17256;43.618;25.336;2023-05-02T09:59:22;101229.00;;;25.20;34.13
30463;BME280;17256;43.618;25.336;2023-05-02T10:02:01;101110.94;;;24.28;31.44
30463;BME280;17256;43.618;25.336;2023-05-02T10:04:40;101228.72;;;25.01;31.53
30463;BME280;17256;43.618;25.336;2023-05-02T10:07:18;101100.81;;;24.22;32.00
30463;BME280;17256;43.618;25.336;2023-05-02T10:09:58;101106.69;;;24.05;32.33
30463;BME280;17256;43.618;25.336;2023-05-02T10:12:36;100829.78;;;22.52;33.07
30463;BME280;17256;43.618;25.336;2023-05-02T10:15:05;100935.72;;;23.38;31.66
30463;BME280;17256;43.618;25.336;2023-05-02T10:17:39;101003.69;;;23.80;32.11
30463;BME280;17256;43.618;25.336;2023-05-02T10:20:09;101156.22;;;24.82;33.46
30463;BME280;17256;43.618;25.336;2023-05-02T10:22:46;101218.63;;;25.05;31.99
30463;BME280;17256;43.618;25.336;2023-05-02T10:25:17;101213.28;;;25.13;31.22
30463;BME280;17256;43.618;25.336;2023-05-02T10:27:50;101129.25;;;24.66;31.75
30463;BME280;17256;43.618;25.336;2023-05-02T10:30:18;101168.31;;;25.08;31.94
30463;BME280;17256;43.618;25.336;2023-05-02T10:32:46;101124.75;;;25.16;32.05
30463;BME280;17256;43.618;25.336;2023-05-02T10:35:15;101204.94;;;26.09;32.09
30463;BME280;17256;43.618;25.336;2023-05-02T10:37:45;101040.44;;;24.96;30.82
30463;BME280;17256;43.618;25.336;2023-05-02T10:40:13;101034.06;;;24.34;30.74
30463;BME280;17256;43.618;25.336;2023-05-02T10:42:42;101144.41;;;25.21;31.29
30463;BME280;17256;43.618;25.336;2023-05-02T10:55:31;101132.50;;;25.50;30.11
30463;BME280;17256;43.618;25.336;2023-05-02T11:00:37;101065.66;;;25.26;30.86
30463;BME280;17256;43.618;25.336;2023-05-02T11:03:06;100815.78;;;23.80;30.52
30463;BME280;17256;43.618;25.336;2023-05-02T11:06:09;101061.25;;;25.10;30.51
30463;BME280;17256;43.618;25.336;2023-05-02T11:08:37;101088.34;;;25.50;30.88
30463;BME280;17256;43.618;25.336;2023-05-02T11:19:28;100848.22;;;24.22;30.56
30463;BME280;17256;43.618;25.336;2023-05-02T11:24:54;101037.31;;;25.18;32.53
30463;BME280;17256;43.618;25.336;2023-05-02T11:30:38;101152.50;;;26.18;30.47
30463;BME280;17256;43.618;25.336;2023-05-02T11:35:56;100890.00;;;24.59;30.82
30463;BME280;17256;43.618;25.336;2023-05-02T11:38:25;101010.88;;;25.29;29.88
30463;BME280;17256;43.618;25.336;2023-05-02T11:40:59;101051.50;;;25.52;30.33
30463;BME280;17256;43.618;25.336;2023-05-02T11:43:30;100935.63;;;24.95;30.16
30463;BME280;17256;43.618;25.336;2023-05-02T11:46:50;100814.56;;;24.22;30.48
30463;BME280;17256;43.618;25.336;2023-05-02T11:49:17;100990.63;;;25.27;30.65
30463;BME280;17256;43.618;25.336;2023-05-02T11:51:45;100828.91;;;24.31;30.61
30463;BME280;17256;43.618;25.336;2023-05-02T11:54:19;101058.28;;;25.45;30.32
30463;BME280;17256;43.618;25.336;2023-05-02T11:56:47;101079.28;;;25.79;30.50
30463;BME280;17256;43.618;25.336;2023-05-02T11:59:15;100808.16;;;24.11;29.60
30463;BME280;17256;43.618;25.336;2023-05-02T12:01:50;100770.31;;;23.93;29.52
30463;BME280;17256;43.618;25.336;2023-05-02T12:04:20;101139.69;;;26.46;29.40
30463;BME280;17256;43.618;25.336;2023-05-02T12:06:58;100771.34;;;24.28;30.24
30463;BME280;17256;43.618;25.336;2023-05-02T12:09:27;100823.00;;;24.32;30.02
30463;BME280;17256;43.618;25.336;2023-05-02T12:11:55;100979.41;;;25.22;30.35
30463;BME280;17256;43.618;25.336;2023-05-02T12:14:27;101056.81;;;25.68;30.15
30463;BME280;17256;43.618;25.336;2023-05-02T12:16:58;101006.84;;;25.45;30.58
30463;BME280;17256;43.618;25.336;2023-05-02T12:19:38;101120.06;;;26.30;30.41
30463;BME280;17256;43.618;25.336;2023-05-02T12:22:06;100760.69;;;24.20;30.58
30463;BME280;17256;43.618;25.336;2023-05-02T12:24:35;100906.72;;;25.05;30.73
30463;BME280;17256;43.618;25.336;2023-05-02T12:27:14;100772.16;;;24.39;30.01
30463;BME280;17256;43.618;25.336;2023-05-02T12:29:49;100926.69;;;25.48;29.46
30463;BME280;17256;43.618;25.336;2023-05-02T12:32:34;100934.44;;;25.22;29.78
30463;BME280;17256;43.618;25.336;2023-05-02T12:39:07;101106.47;;;26.43;29.98
30463;BME280;17256;43.618;25.336;2023-05-02T12:41:38;100978.50;;;25.86;30.30
30463;BME280;17256;43.618;25.336;2023-05-02T13:08:48;101076.72;;;26.65;30.67
30463;BME280;17256;43.618;25.336;2023-05-02T13:12:15;100961.53;;;25.96;30.39
30463;BME280;17256;43.618;25.336;2023-05-02T13:35:36;100928.59;;;25.96;29.24
30463;BME280;17256;43.618;25.336;2023-05-02T13:38:06;100603.97;;;23.93;29.47
30463;BME280;17256;43.618;25.336;2023-05-02T13:40:34;100644.75;;;24.35;29.11
30463;BME280;17256;43.618;25.336;2023-05-02T13:43:00;100726.88;;;25.00;29.37
30463;BME280;17256;43.618;25.336;2023-05-02T13:45:41;100668.34;;;24.73;30.20
30463;BME280;17256;43.618;25.336;2023-05-02T13:53:54;100784.47;;;25.02;30.26
30463;BME280;17256;43.618;25.336;2023-05-02T13:56:23;100941.34;;;25.89;29.78
30463;BME280;17256;43.618;25.336;2023-05-02T13:58:59;100847.94;;;25.48;29.98
30463;BME280;17256;43.618;25.336;2023-05-02T14:01:27;100852.88;;;25.71;30.36
30463;BME280;17256;43.618;25.336;2023-05-02T14:10:45;101021.88;;;26.19;30.02
30463;BME280;17256;43.618;25.336;2023-05-02T14:13:16;100671.69;;;24.36;31.17
30463;BME280;17256;43.618;25.336;2023-05-02T14:15:45;100623.84;;;24.02;31.01
30463;BME280;17256;43.618;25.336;2023-05-02T14:18:12;100832.56;;;24.91;30.71
30463;BME280;17256;43.618;25.336;2023-05-02T14:20:41;100755.56;;;24.42;30.59
30463;BME280;17256;43.618;25.336;2023-05-02T14:23:10;101029.06;;;25.96;30.44
30463;BME280;17256;43.618;25.336;2023-05-02T14:25:37;100941.88;;;25.46;30.78
30463;BME280;17256;43.618;25.336;2023-05-02T14:28:21;100614.53;;;23.26;31.56
30463;BME280;17256;43.618;25.336;2023-05-02T14:31:27;101033.56;;;25.97;31.63
30463;BME280;17256;43.618;25.336;2023-05-02T14:35:35;101030.38;;;25.64;32.09
30463;BME280;17256;43.618;25.336;2023-05-02T14:38:14;100913.75;;;24.92;31.67
30463;BME280;17256;43.618;25.336;2023-05-02T14:40:48;100672.56;;;23.36;32.15
30463;BME280;17256;43.618;25.336;2023-05-02T14:47:52;100803.28;;;24.47;31.77
30463;BME280;17256;43.618;25.336;2023-05-02T14:50:26;100813.66;;;24.47;31.39
30463;BME280;17256;43.618;25.336;2023-05-02T14:52:56;100685.97;;;23.49;31.42
30463;BME280;17256;43.618;25.336;2023-05-02T14:55:23;100875.69;;;24.50;31.83
30463;BME280;17256;43.618;25.336;2023-05-02T14:57:51;100899.28;;;24.60;31.12
30463;BME280;17256;43.618;25.336;2023-05-02T15:03:08;101024.09;;;25.23;31.86
30463;BME280;17256;43.618;25.336;2023-05-02T15:09:23;101024.72;;;25.05;31.35
30463;BME280;17256;43.618;25.336;2023-05-02T15:11:52;100819.13;;;23.92;31.83
30463;BME280;17256;43.618;25.336;2023-05-02T15:20:00;100893.63;;;24.65;32.11
30463;BME280;17256;43.618;25.336;2023-05-02T15:22:28;101010.59;;;25.30;31.98
30463;BME280;17256;43.618;25.336;2023-05-02T15:25:03;100945.25;;;24.84;31.69
30463;BME280;17256;43.618;25.336;2023-05-02T15:30:20;100877.44;;;24.16;31.49
30463;BME280;17256;43.618;25.336;2023-05-02T15:33:19;100961.91;;;24.40;31.99
30463;BME280;17256;43.618;25.336;2023-05-02T15:35:59;100864.56;;;23.74;32.40
30463;BME280;17256;43.618;25.336;2023-05-02T15:38:38;100824.72;;;23.47;32.64
30463;BME280;17256;43.618;25.336;2023-05-02T15:41:13;100795.28;;;23.24;32.22
30463;BME280;17256;43.618;25.336;2023-05-02T15:43:39;101009.91;;;24.28;31.76
30463;BME280;17256;43.618;25.336;2023-05-02T15:46:26;101019.16;;;24.29;32.04
30463;BME280;17256;43.618;25.336;2023-05-02T15:49:03;100855.22;;;23.08;32.62
30463;BME280;17256;43.618;25.336;2023-05-02T15:51:31;100870.88;;;23.03;32.00
30463;BME280;17256;43.618;25.336;2023-05-02T15:53:57;100839.75;;;22.85;32.77
30463;BME280;17256;43.618;25.336;2023-05-02T15:56:25;100952.81;;;23.36;32.49
30463;BME280;17256;43.618;25.336;2023-05-02T15:58:52;100873.25;;;22.75;32.65
30463;BME280;17256;43.618;25.336;2023-05-02T16:01:18;100943.00;;;23.33;32.60
30463;BME280;17256;43.618;25.336;2023-05-02T16:03:47;100930.03;;;23.22;32.77
30463;BME280;17256;43.618;25.336;2023-05-02T16:06:14;101029.44;;;23.67;32.96
30463;BME280;17256;43.618;25.336;2023-05-02T16:08:43;100844.31;;;22.54;32.95
30463;BME280;17256;43.618;25.336;2023-05-02T16:11:12;100949.09;;;23.20;33.03